Time;durP1;ratioP1;P1;durP2;ratioP2;P2;SDS_P1;SDS_P2;PMS_P1;PMS_P2;Temp;Humidity;BMP_temperature;BMP_pressure;BME280_temperature;BME280_humidity;BME280_pressure;Samples;Min_cycle;Max_cycle;Signal;HPM_P1;HPM_P2
2023/04/12 00:02:15;;;;;;;2.75;0.98;;;15.90;90.90;;;;;;5035119;28;20104;-67
2023/04/12 00:04:41;;;;;;;2.88;0.80;;;15.90;90.90;;;;;;5035252;28;20387;-68
2023/04/12 00:07:08;;;;;;;1.70;0.63;;;15.80;91.00;;;;;;5035274;28;20025;-67
2023/04/12 00:09:35;;;;;;;2.35;0.60;;;15.90;90.90;;;;;;5035191;28;20045;-65
2023/04/12 00:12:01;;;;;;;3.20;0.80;;;15.90;90.90;;;;;;5034893;28;20437;-60
2023/04/12 00:14:27;;;;;;;3.95;0.55;;;15.80;91.00;;;;;;5034976;28;20072;-65
2023/04/12 00:16:53;;;;;;;2.63;0.82;;;15.80;91.10;;;;;;5034504;28;20033;-66
2023/04/12 00:19:18;;;;;;;2.08;0.70;;;15.80;91.00;;;;;;5035020;28;20029;-59
2023/04/12 00:21:44;;;;;;;4.38;1.00;;;15.70;91.10;;;;;;5034938;28;20383;-66
2023/04/12 00:24:10;;;;;;;1.20;0.40;;;15.80;91.00;;;;;;5034715;28;20030;-61
2023/04/12 00:26:36;;;;;;;2.90;0.73;;;15.70;91.10;;;;;;5034552;28;20506;-64
2023/04/12 00:29:01;;;;;;;1.75;0.70;;;15.80;90.90;;;;;;5034735;28;20022;-66
2023/04/12 00:31:27;;;;;;;2.20;0.60;;;15.80;91.00;;;;;;5035094;28;20029;-65
2023/04/12 00:33:52;;;;;;;2.35;0.45;;;15.70;91.00;;;;;;5034538;28;20025;-61
2023/04/12 00:36:18;;;;;;;4.32;0.75;;;15.70;91.10;;;;;;5034483;28;20021;-67
2023/04/12 00:38:44;;;;;;;3.85;0.90;;;15.70;91.10;;;;;;5034543;28;20454;-67
2023/04/12 00:41:11;;;;;;;2.50;0.88;;;15.70;91.00;;;;;;5016785;28;20501;-67
2023/04/12 00:43:38;;;;;;;3.05;0.80;;;15.60;91.20;;;;;;5034317;28;20037;-66
2023/04/12 00:46:04;;;;;;;2.50;0.70;;;15.60;91.20;;;;;;5034249;28;20018;-62
2023/04/12 00:48:30;;;;;;;2.88;0.65;;;15.60;91.20;;;;;;5034220;28;20033;-66
2023/04/12 00:50:56;;;;;;;2.30;0.75;;;15.50;91.50;;;;;;5034027;28;20027;-67
2023/04/12 00:53:22;;;;;;;2.65;0.75;;;15.60;91.30;;;;;;5034314;28;20108;-62
2023/04/12 00:55:49;;;;;;;2.70;0.60;;;15.50;91.40;;;;;;5034213;28;20514;-64
2023/04/12 00:58:16;;;;;;;2.20;0.57;;;15.50;91.40;;;;;;5034181;28;20043;-67
2023/04/12 01:00:49;;;;;;;3.65;0.68;;;15.70;91.40;;;;;;5033616;28;20024;-65
2023/04/12 01:03:21;;;;;;;2.97;0.80;;;15.60;91.40;;;;;;5034128;28;20425;-67
2023/04/12 01:06:12;;;;;;;1.58;0.40;;;15.60;91.40;;;;;;5033927;28;20026;-60
2023/04/12 01:08:54;;;;;;;1.38;0.50;;;15.50;91.50;;;;;;5033778;28;20108;-66
2023/04/12 01:11:36;;;;;;;2.10;0.70;;;15.50;91.50;;;;;;5033675;28;20091;-67
2023/04/12 01:14:09;;;;;;;2.72;0.68;;;15.50;91.70;;;;;;5033990;28;20112;-67
2023/04/12 01:16:49;;;;;;;2.17;0.57;;;15.50;91.60;;;;;;5015857;28;20018;-63
2023/04/12 01:19:30;;;;;;;1.73;0.60;;;15.40;91.70;;;;;;5033863;28;20033;-65
2023/04/12 01:22:10;;;;;;;2.03;0.65;;;15.40;91.80;;;;;;5034235;28;20025;-67
2023/04/12 01:25:23;;;;;;;2.70;0.70;;;15.50;91.80;;;;;;5033513;28;20076;-68
2023/04/12 01:28:01;;;;;;;4.18;0.90;;;15.40;91.70;;;;;;5033609;28;20028;-67
2023/04/12 01:30:28;;;;;;;2.42;0.82;;;15.40;91.80;;;;;;5033200;28;20029;-67
2023/04/12 01:32:55;;;;;;;2.15;0.57;;;15.40;92.00;;;;;;5033499;28;20386;-66
2023/04/12 01:35:25;;;;;;;1.33;0.40;;;15.40;92.00;;;;;;5033415;28;20091;-65
2023/04/12 01:37:51;;;;;;;5.38;0.70;;;15.40;91.90;;;;;;5032666;28;20084;-62
2023/04/12 01:40:18;;;;;;;2.05;0.60;;;15.30;92.00;;;;;;5033401;28;20026;-66
2023/04/12 01:42:43;;;;;;;3.60;0.60;;;15.30;91.90;;;;;;5033164;28;20045;-67
2023/04/12 01:45:10;;;;;;;2.92;0.80;;;15.40;92.00;;;;;;5032918;28;20399;-67
2023/04/12 01:47:35;;;;;;;1.98;0.52;;;15.40;91.90;;;;;;5033396;28;20112;-66
2023/04/12 01:50:15;;;;;;;2.30;0.43;;;15.30;92.10;;;;;;5031456;28;20120;-66
2023/04/12 01:52:51;;;;;;;2.63;1.05;;;15.30;92.10;;;;;;5031565;28;20033;-67
2023/04/12 01:55:20;;;;;;;1.83;0.70;;;15.30;92.20;;;;;;5031333;28;20025;-68
2023/04/12 01:57:48;;;;;;;2.65;0.43;;;15.30;92.20;;;;;;5033013;28;20079;-66
2023/04/12 02:00:15;;;;;;;1.70;0.43;;;15.30;92.20;;;;;;5032841;28;20021;-67
2023/04/12 02:02:42;;;;;;;2.00;0.50;;;15.40;92.00;;;;;;5032450;28;20049;-69
2023/04/12 02:05:08;;;;;;;1.90;0.65;;;15.30;92.20;;;;;;5032597;28;20025;-68
2023/04/12 02:07:36;;;;;;;3.28;0.68;;;15.30;92.20;;;;;;5032686;28;20105;-64
2023/04/12 02:10:01;;;;;;;2.08;0.40;;;15.30;92.30;;;;;;5032822;28;20112;-65
2023/04/12 02:12:27;;;;;;;1.80;0.68;;;15.30;92.40;;;;;;5032906;28;20137;-68
2023/04/12 02:14:52;;;;;;;2.60;0.77;;;15.30;92.20;;;;;;5032647;28;20018;-68
2023/04/12 02:17:18;;;;;;;2.30;0.95;;;15.40;92.00;;;;;;5032660;28;20021;-68
2023/04/12 02:19:44;;;;;;;1.73;0.22;;;15.40;92.20;;;;;;5033022;28;20025;-66
2023/04/12 02:22:10;;;;;;;1.98;0.43;;;15.30;92.20;;;;;;5014885;28;20531;-68
2023/04/12 02:24:35;;;;;;;2.65;0.50;;;15.30;92.50;;;;;;5032743;28;20021;-68
2023/04/12 02:27:01;;;;;;;2.97;0.55;;;15.30;92.20;;;;;;5032553;28;20430;-67
2023/04/12 02:29:27;;;;;;;3.83;0.60;;;15.40;92.10;;;;;;5032354;28;20468;-67
2023/04/12 02:31:52;;;;;;;1.83;0.60;;;15.40;92.10;;;;;;5032581;28;20087;-66
2023/04/12 02:34:18;;;;;;;1.52;0.40;;;15.40;92.10;;;;;;5032648;28;20021;-67
2023/04/12 02:36:47;;;;;;;2.28;0.52;;;15.50;91.90;;;;;;5032381;28;20040;-66
2023/04/12 02:39:13;;;;;;;2.63;0.43;;;15.50;91.80;;;;;;5032356;28;20100;-68
2023/04/12 02:41:39;;;;;;;2.13;0.50;;;15.50;91.80;;;;;;5032055;28;20037;-69
2023/04/12 02:44:04;;;;;;;2.25;0.65;;;15.50;91.80;;;;;;5032659;28;20055;-67
2023/04/12 02:46:30;;;;;;;1.50;0.50;;;15.50;92.20;;;;;;5032313;28;20382;-66
2023/04/12 02:48:56;;;;;;;2.70;0.85;;;15.40;92.10;;;;;;5035094;28;20079;-68
2023/04/12 02:51:21;;;;;;;1.63;0.45;;;15.50;92.50;;;;;;5036334;28;20449;-67
2023/04/12 02:53:47;;;;;;;1.88;0.63;;;15.40;92.10;;;;;;5036308;28;20036;-65
2023/04/12 02:56:12;;;;;;;1.75;0.55;;;15.40;92.20;;;;;;5036333;28;20028;-64
2023/04/12 02:58:38;;;;;;;1.90;0.30;;;15.30;92.40;;;;;;5036517;28;20108;-68
2023/04/12 03:01:06;;;;;;;2.10;0.50;;;15.30;92.50;;;;;;5002205;28;20501;-62
2023/04/12 03:03:33;;;;;;;2.13;0.50;;;15.20;92.80;;;;;;5036186;28;20021;-67
2023/04/12 03:05:59;;;;;;;2.15;0.50;;;15.20;92.90;;;;;;5036415;28;20026;-68
2023/04/12 03:08:25;;;;;;;2.10;0.68;;;15.20;92.70;;;;;;5018488;28;20030;-64
2023/04/12 03:10:50;;;;;;;2.45;0.60;;;15.30;92.80;;;;;;5035963;28;20390;-67
2023/04/12 03:13:16;;;;;;;1.88;0.30;;;15.30;92.50;;;;;;5035956;28;20073;-68
2023/04/12 03:15:45;;;;;;;2.55;0.40;;;15.40;92.30;;;;;;5036163;28;20483;-61
2023/04/12 03:18:10;;;;;;;1.33;0.40;;;15.30;92.70;;;;;;5036072;28;20104;-64
2023/04/12 03:20:38;;;;;;;1.70;0.50;;;15.30;92.50;;;;;;5036063;28;20056;-62
2023/04/12 03:23:04;;;;;;;1.55;0.30;;;15.40;92.30;;;;;;5035969;28;20437;-67
2023/04/12 03:25:30;;;;;;;1.48;0.30;;;15.40;92.30;;;;;;5018014;28;20054;-68
2023/04/12 03:27:55;;;;;;;1.33;0.20;;;15.50;92.20;;;;;;5035895;28;20033;-64
2023/04/12 03:30:21;;;;;;;2.33;0.60;;;15.50;92.30;;;;;;5035957;28;20079;-61
2023/04/12 03:32:46;;;;;;;1.23;0.30;;;15.50;92.30;;;;;;5035655;28;20044;-64
2023/04/12 03:35:12;;;;;;;1.27;0.20;;;15.50;92.40;;;;;;5035815;28;20026;-67
2023/04/12 03:37:41;;;;;;;1.98;0.50;;;15.50;92.10;;;;;;5035548;28;20026;-67
2023/04/12 03:40:08;;;;;;;1.70;0.40;;;15.50;92.30;;;;;;5035541;28;20021;-67
2023/04/12 03:42:34;;;;;;;1.58;0.45;;;15.40;92.40;;;;;;5035453;28;20052;-61
2023/04/12 03:45:00;;;;;;;2.55;0.30;;;15.30;92.80;;;;;;5035649;28;20382;-61
2023/04/12 03:47:25;;;;;;;2.53;0.52;;;15.30;92.60;;;;;;5035561;28;20095;-68
2023/04/12 03:49:54;;;;;;;1.38;0.32;;;15.30;92.90;;;;;;5035465;28;20021;-64
2023/04/12 03:52:19;;;;;;;5.07;0.60;;;15.30;92.70;;;;;;5035003;28;20034;-68
2023/04/12 03:54:45;;;;;;;2.38;0.38;;;15.30;92.90;;;;;;5035071;28;20029;-67
2023/04/12 03:57:10;;;;;;;2.38;0.40;;;15.30;92.90;;;;;;5035294;28;20052;-68
2023/04/12 03:59:36;;;;;;;1.00;0.30;;;15.40;92.50;;;;;;5034534;28;20033;-68
2023/04/12 04:02:01;;;;;;;0.50;0.20;;;15.40;92.50;;;;;;5035343;28;20036;-64
2023/04/12 04:04:27;;;;;;;1.63;0.40;;;15.40;92.60;;;;;;5035208;28;20032;-66
2023/04/12 04:06:53;;;;;;;1.23;0.30;;;15.40;92.50;;;;;;5035134;28;20021;-68
2023/04/12 04:09:19;;;;;;;1.55;0.40;;;15.40;92.70;;;;;;5035070;28;20474;-68
2023/04/12 04:11:45;;;;;;;0.90;0.35;;;15.40;92.60;;;;;;5034953;28;20483;-65
2023/04/12 04:14:11;;;;;;;0.73;0.20;;;15.40;92.70;;;;;;5035001;28;20048;-68
2023/04/12 04:16:37;;;;;;;1.20;0.30;;;15.40;92.70;;;;;;5035047;28;20018;-68
2023/04/12 04:19:03;;;;;;;1.75;0.40;;;15.50;92.80;;;;;;5034759;28;20474;-61
2023/04/12 04:21:31;;;;;;;1.65;0.50;;;15.50;93.50;;;;;;5034897;28;20463;-67
2023/04/12 04:23:59;;;;;;;2.30;0.50;;;15.20;94.60;;;;;;5034383;28;20100;-66
2023/04/12 04:26:37;;;;;;;4.85;0.70;;;15.10;94.30;;;;;;5034765;28;20582;-66
2023/04/12 04:29:03;;;;;;;1.67;0.50;;;15.00;95.10;;;;;;5034700;28;20026;-64
2023/04/12 04:31:33;;;;;;;2.45;0.63;;;14.80;95.40;;;;;;5034642;28;20431;-60
2023/04/12 04:34:04;;;;;;;1.65;0.50;;;14.50;96.10;;;;;;5034602;28;20061;-60
2023/04/12 04:36:33;;;;;;;3.33;0.60;;;14.50;96.10;;;;;;5034684;28;20025;-62
2023/04/12 04:38:58;;;;;;;4.93;0.65;;;14.40;96.70;;;;;;5034229;28;20075;-62
2023/04/12 04:41:25;;;;;;;1.90;0.50;;;14.20;97.10;;;;;;5034450;28;20038;-67
2023/04/12 04:43:50;;;;;;;2.13;0.80;;;14.10;97.40;;;;;;5034326;28;20029;-61
2023/04/12 04:46:19;;;;;;;3.60;0.85;;;13.40;99.70;;;;;;5034667;28;20091;-68
2023/04/12 04:48:46;;;;;;;2.72;0.90;;;12.90;99.90;;;;;;5034549;28;20083;-67
2023/04/12 04:51:13;;;;;;;3.47;0.77;;;12.70;99.90;;;;;;5034626;28;20021;-68
2023/04/12 04:53:39;;;;;;;3.95;0.98;;;12.60;99.90;;;;;;5034062;28;20118;-60
2023/04/12 04:56:05;;;;;;;2.58;1.08;;;12.60;99.90;;;;;;5034205;28;20102;-58
2023/04/12 04:58:31;;;;;;;5.88;1.30;;;12.60;99.90;;;;;;5034256;28;20053;-60
2023/04/12 05:00:58;;;;;;;4.55;1.60;;;12.50;99.90;;;;;;5030597;28;20057;-61
2023/04/12 05:03:27;;;;;;;5.40;1.42;;;12.50;99.90;;;;;;5025088;28;20096;-62
2023/04/12 05:05:53;;;;;;;6.75;1.55;;;12.50;99.90;;;;;;5033841;28;20080;-67
2023/04/12 05:08:19;;;;;;;4.00;1.58;;;12.40;99.90;;;;;;5015862;28;20352;-63
2023/04/12 05:10:51;;;;;;;3.53;1.60;;;12.40;99.90;;;;;;5033992;28;20044;-67
2023/04/12 05:13:17;;;;;;;4.22;1.30;;;12.40;99.90;;;;;;5015215;28;20542;-66
2023/04/12 05:15:42;;;;;;;5.40;1.77;;;12.40;99.90;;;;;;5033802;28;20109;-67
2023/04/12 05:18:08;;;;;;;4.28;1.58;;;12.20;99.90;;;;;;5015619;28;20386;-63
2023/04/12 05:20:33;;;;;;;3.97;1.52;;;12.10;99.90;;;;;;5033850;28;20041;-67
2023/04/12 05:22:59;;;;;;;5.07;1.58;;;12.10;99.90;;;;;;5033409;28;20383;-65
2023/04/12 05:25:25;;;;;;;3.38;1.48;;;12.10;99.90;;;;;;5016156;28;20231;-67
2023/04/12 05:27:51;;;;;;;4.70;1.80;;;12.00;99.90;;;;;;5033513;28;20034;-68
2023/04/12 05:30:16;;;;;;;4.85;1.83;;;12.00;99.90;;;;;;5033678;28;20029;-61
2023/04/12 05:32:42;;;;;;;7.05;1.65;;;11.90;99.90;;;;;;5033502;28;20119;-64
2023/04/12 05:35:07;;;;;;;5.00;1.90;;;11.90;99.90;;;;;;5033540;28;20087;-65
2023/04/12 05:37:33;;;;;;;6.00;2.25;;;11.80;99.90;;;;;;5033102;28;20025;-64
2023/04/12 05:39:59;;;;;;;6.13;1.60;;;11.70;99.90;;;;;;5033231;28;20101;-61
2023/04/12 05:42:24;;;;;;;7.20;2.50;;;11.80;99.90;;;;;;5033021;28;20044;-66
2023/04/12 05:44:50;;;;;;;8.77;2.70;;;11.90;99.90;;;;;;5033501;28;20593;-60
2023/04/12 05:47:15;;;;;;;9.55;2.40;;;11.80;99.90;;;;;;5033165;28;20429;-63
2023/04/12 05:49:41;;;;;;;5.80;2.05;;;11.80;99.90;;;;;;5033390;28;20022;-65
2023/04/12 05:52:07;;;;;;;11.60;2.17;;;11.80;99.90;;;;;;5032638;28;20029;-66
2023/04/12 05:54:32;;;;;;;10.35;2.53;;;11.70;99.90;;;;;;5033440;28;20017;-60
2023/04/12 05:56:58;;;;;;;8.55;2.38;;;11.70;99.90;;;;;;5032920;28;20466;-67
2023/04/12 05:59:24;;;;;;;10.90;2.63;;;11.70;99.90;;;;;;5033202;28;20108;-64
2023/04/12 06:01:50;;;;;;;6.55;2.30;;;11.60;99.90;;;;;;5033069;28;20026;-67
2023/04/12 06:04:15;;;;;;;9.00;2.40;;;11.60;99.90;;;;;;5032923;28;20036;-67
2023/04/12 06:06:42;;;;;;;6.57;2.25;;;11.60;99.90;;;;;;5032805;28;20021;-64
2023/04/12 06:09:08;;;;;;;7.63;2.60;;;11.50;99.90;;;;;;5032968;28;20056;-61
2023/04/12 06:11:34;;;;;;;6.75;2.65;;;11.60;99.90;;;;;;5032418;28;20112;-61
2023/04/12 06:14:00;;;;;;;11.55;2.63;;;11.50;99.90;;;;;;5032848;28;20519;-64
2023/04/12 06:16:26;;;;;;;6.53;2.20;;;11.50;99.90;;;;;;5032999;28;20053;-66
2023/04/12 06:18:52;;;;;;;11.18;2.53;;;11.50;99.90;;;;;;5033058;28;20395;-65
2023/04/12 06:21:18;;;;;;;7.63;2.45;;;11.50;99.90;;;;;;5032300;28;20028;-67
2023/04/12 06:23:43;;;;;;;6.20;2.28;;;11.50;99.90;;;;;;5015055;28;20075;-67
2023/04/12 06:26:09;;;;;;;9.38;2.35;;;11.60;99.90;;;;;;5032511;28;20492;-67
2023/04/12 06:28:35;;;;;;;12.07;3.10;;;11.60;99.90;;;;;;5032654;28;20475;-66
2023/04/12 06:31:00;;;;;;;11.60;2.42;;;11.60;99.90;;;;;;5032682;28;20022;-68
2023/04/12 06:33:27;;;;;;;11.55;2.67;;;11.50;99.90;;;;;;5032473;28;20136;-67
2023/04/12 06:35:53;;;;;;;6.53;2.28;;;11.50;99.90;;;;;;5032404;28;20113;-66
2023/04/12 06:38:18;;;;;;;8.02;2.70;;;11.50;99.90;;;;;;5032346;28;20038;-67
2023/04/12 06:40:44;;;;;;;8.55;2.35;;;11.40;99.90;;;;;;5032445;28;21107;-67
2023/04/12 06:43:10;;;;;;;10.30;2.55;;;11.50;99.90;;;;;;5032327;28;20037;-61
2023/04/12 06:45:35;;;;;;;8.90;2.53;;;11.50;99.90;;;;;;5032725;28;20033;-68
2023/04/12 06:48:01;;;;;;;9.43;2.60;;;11.50;99.90;;;;;;5032315;28;20025;-68
2023/04/12 06:50:26;;;;;;;10.40;2.33;;;11.60;99.90;;;;;;5032268;28;20522;-64
2023/04/12 06:52:52;;;;;;;8.20;2.40;;;11.70;99.90;;;;;;5032408;28;20076;-62
2023/04/12 06:55:18;;;;;;;14.30;2.95;;;11.70;99.90;;;;;;5032285;28;20113;-68
2023/04/12 06:57:44;;;;;;;14.45;2.95;;;11.70;99.90;;;;;;5032284;28;20061;-62
2023/04/12 07:00:11;;;;;;;8.52;2.67;;;11.70;99.90;;;;;;5032586;28;20017;-67
2023/04/12 07:02:37;;;;;;;12.75;3.13;;;11.90;99.90;;;;;;5032848;28;20041;-64
2023/04/12 07:05:03;;;;;;;15.05;2.97;;;11.90;99.90;;;;;;5032245;28;20018;-68
2023/04/12 07:07:29;;;;;;;17.75;2.75;;;11.60;99.90;;;;;;5032027;28;20416;-69
2023/04/12 07:09:55;;;;;;;16.67;3.05;;;11.30;99.90;;;;;;5032005;28;20494;-66
2023/04/12 07:12:21;;;;;;;17.38;3.45;;;11.30;99.90;;;;;;5030838;28;20042;-66
2023/04/12 07:14:47;;;;;;;11.75;3.60;;;11.50;99.90;;;;;;5027040;28;20037;-66
2023/04/12 07:17:12;;;;;;;11.35;2.83;;;11.70;99.90;;;;;;4980473;28;20037;-66
2023/04/12 07:19:39;;;;;;;13.50;3.08;;;11.90;99.90;;;;;;5021870;28;20021;-65
2023/04/12 07:22:05;;;;;;;13.30;2.60;;;11.90;99.90;;;;;;5029556;28;20024;-66
2023/04/12 07:24:31;;;;;;;16.13;3.83;;;11.90;99.90;;;;;;4994669;28;20289;-66
2023/04/12 07:26:57;;;;;;;15.60;3.20;;;11.90;99.90;;;;;;5030105;28;20022;-66
2023/04/12 07:29:22;;;;;;;14.57;3.03;;;12.00;99.90;;;;;;5005121;28;20034;-66
2023/04/12 07:31:48;;;;;;;15.88;3.70;;;12.30;99.90;;;;;;5011823;28;20084;-67
2023/04/12 07:34:14;;;;;;;14.25;3.38;;;12.40;99.90;;;;;;5011801;28;20475;-67
2023/04/12 07:36:39;;;;;;;16.92;3.95;;;12.40;99.90;;;;;;5015678;28;20076;-66
2023/04/12 07:39:05;;;;;;;12.20;3.15;;;12.30;99.90;;;;;;5014899;28;20489;-66
2023/04/12 07:41:31;;;;;;;11.85;2.75;;;12.20;99.90;;;;;;5014918;28;20037;-66
2023/04/12 07:43:56;;;;;;;16.52;3.92;;;12.40;99.90;;;;;;5015791;28;20474;-68
2023/04/12 07:46:23;;;;;;;19.20;3.92;;;12.40;99.90;;;;;;5014944;28;20018;-71
2023/04/12 07:48:50;;;;;;;20.80;4.30;;;12.40;99.90;;;;;;5033217;28;20044;-69
2023/04/12 07:51:16;;;;;;;17.38;3.03;;;12.30;99.90;;;;;;5035038;28;20021;-67
2023/04/12 07:53:46;;;;;;;13.75;3.88;;;12.20;99.90;;;;;;5035338;28;20465;-71
2023/04/12 07:56:14;;;;;;;21.65;3.63;;;12.10;99.90;;;;;;5035663;28;20029;-71
2023/04/12 07:58:40;;;;;;;10.70;2.55;;;12.10;99.90;;;;;;5035111;28;20123;-72
2023/04/12 08:01:07;;;;;;;8.98;2.13;;;12.20;99.90;;;;;;5035070;28;20048;-66
2023/04/12 08:03:32;;;;;;;10.95;1.80;;;12.90;99.90;;;;;;5035034;28;20026;-66
2023/04/12 08:05:58;;;;;;;11.57;2.95;;;13.40;99.90;;;;;;5033144;28;20055;-66
2023/04/12 08:08:24;;;;;;;9.88;2.63;;;13.70;99.90;;;;;;5034949;28;20021;-65
2023/04/12 08:10:51;;;;;;;11.43;2.72;;;14.00;99.90;;;;;;5032827;28;20152;-66
2023/04/12 08:13:18;;;;;;;9.23;2.00;;;14.20;99.90;;;;;;5014369;28;20046;-66
2023/04/12 08:15:45;;;;;;;17.02;2.63;;;14.50;99.90;;;;;;5034296;28;20036;-67
2023/04/12 08:18:11;;;;;;;12.88;3.00;;;14.40;99.40;;;;;;5033262;28;20434;-66
2023/04/12 08:20:39;;;;;;;17.85;3.75;;;14.20;98.80;;;;;;5014835;28;20076;-66
2023/04/12 08:23:05;;;;;;;11.70;3.10;;;13.50;99.90;;;;;;4997419;28;20088;-67
2023/04/12 08:25:31;;;;;;;11.13;2.97;;;13.30;99.90;;;;;;5030500;28;20022;-69
2023/04/12 08:27:56;;;;;;;10.93;2.55;;;13.30;99.90;;;;;;5015013;28;20036;-67
2023/04/12 08:30:25;;;;;;;17.83;3.40;;;13.60;99.90;;;;;;5024081;28;20020;-70
2023/04/12 08:32:51;;;;;;;11.07;2.42;;;13.50;99.90;;;;;;5034503;28;20037;-67
2023/04/12 08:35:17;;;;;;;8.15;2.05;;;13.50;99.90;;;;;;5034682;28;20025;-66
2023/04/12 08:37:43;;;;;;;10.95;3.13;;;14.10;99.90;;;;;;5034037;28;20364;-70
2023/04/12 08:40:09;;;;;;;12.13;2.47;;;14.30;97.90;;;;;;5034207;28;20033;-70
2023/04/12 08:42:37;;;;;;;10.98;3.15;;;14.20;98.30;;;;;;5030253;28;20033;-66
2023/04/12 08:45:10;;;;;;;10.18;3.28;;;13.80;99.00;;;;;;4998093;28;20403;-68
2023/04/12 08:47:42;;;;;;;13.63;3.20;;;13.80;99.80;;;;;;5016239;28;20025;-66
2023/04/12 08:50:11;;;;;;;11.45;3.03;;;13.60;99.70;;;;;;5027189;28;20034;-71
2023/04/12 08:52:37;;;;;;;12.88;2.78;;;13.30;99.90;;;;;;5014567;28;20038;-68
2023/04/12 08:55:07;;;;;;;11.40;2.80;;;13.00;99.90;;;;;;5022776;28;20091;-66
2023/04/12 08:57:35;;;;;;;8.45;2.42;;;12.90;99.90;;;;;;5034059;28;20053;-67
2023/04/12 09:00:02;;;;;;;11.50;2.53;;;13.10;99.90;;;;;;5031829;28;20033;-67
2023/04/12 09:02:28;;;;;;;10.18;2.80;;;13.50;99.90;;;;;;5028742;28;20021;-73
2023/04/12 09:04:54;;;;;;;10.13;2.47;;;14.00;99.50;;;;;;5032304;28;20364;-67
2023/04/12 09:07:26;;;;;;;7.32;2.47;;;14.20;98.70;;;;;;5017170;28;20483;-65
2023/04/12 09:09:52;;;;;;;8.60;2.30;;;14.50;98.40;;;;;;5016463;28;20057;-66
2023/04/12 09:12:21;;;;;;;12.95;2.30;;;14.60;97.90;;;;;;5033551;28;20076;-66
2023/04/12 09:14:47;;;;;;;9.02;1.95;;;14.80;97.50;;;;;;5033022;28;20064;-69
2023/04/12 09:17:25;;;;;;;10.35;1.85;;;14.90;97.30;;;;;;5015404;28;20490;-68
2023/04/12 09:19:52;;;;;;;7.72;2.00;;;15.00;97.00;;;;;;5033220;28;20059;-67
2023/04/12 09:22:18;;;;;;;8.18;1.80;;;15.10;96.50;;;;;;5015881;28;20030;-66
2023/04/12 09:24:50;;;;;;;7.97;1.90;;;15.20;96.50;;;;;;5017517;28;20382;-69
2023/04/12 09:27:19;;;;;;;;;;;15.20;96.20;;;;;;5033400;28;20522;-66
2023/04/12 09:29:50;;;;;;;10.73;2.65;;;15.30;95.90;;;;;;5032028;28;19917;-68
2023/04/12 09:32:25;;;;;;;6.15;1.90;;;15.30;95.80;;;;;;5032050;28;20044;-65
2023/04/12 09:35:04;;;;;;;7.63;2.20;;;15.40;95.30;;;;;;5031101;28;20060;-66
2023/04/12 09:37:30;;;;;;;7.50;2.08;;;15.40;95.10;;;;;;5015926;28;20034;-66
2023/04/12 09:40:06;;;;;;;6.85;2.00;;;15.40;95.10;;;;;;5030816;28;20245;-67
2023/04/12 09:42:36;;;;;;;9.02;2.08;;;15.40;94.90;;;;;;5031454;28;20041;-66
2023/04/12 09:45:24;;;;;;;7.55;1.98;;;15.40;95.00;;;;;;5010749;28;20483;-67
2023/04/12 09:47:49;;;;;;;6.30;1.95;;;15.50;94.60;;;;;;5030970;28;20040;-67
2023/04/12 09:50:27;;;;;;;13.18;2.30;;;15.60;94.80;;;;;;5028348;28;20018;-67
2023/04/12 09:52:54;;;;;;;8.65;2.22;;;15.60;94.20;;;;;;5026744;28;20037;-68
2023/04/12 09:55:24;;;;;;;8.05;2.33;;;15.60;94.00;;;;;;5027307;28;20022;-68
2023/04/12 09:57:51;;;;;;;10.10;2.60;;;15.70;93.80;;;;;;4991198;28;20077;-67
2023/04/12 10:00:18;;;;;;;10.63;2.30;;;15.70;93.50;;;;;;5021591;28;20013;-67
2023/04/12 10:02:47;;;;;;;9.77;2.55;;;15.70;93.10;;;;;;5030758;28;20052;-67
2023/04/12 10:05:15;;;;;;;12.35;2.95;;;15.80;93.20;;;;;;5022094;28;20026;-67
2023/04/12 10:07:41;;;;;;;9.57;2.50;;;15.70;93.10;;;;;;5019292;28;20431;-68
2023/04/12 10:10:13;;;;;;;10.13;2.42;;;15.80;93.40;;;;;;5016465;28;20131;-68
2023/04/12 10:12:40;;;;;;;13.32;3.25;;;15.80;93.50;;;;;;5021034;28;20061;-67
2023/04/12 10:15:12;;;;;;;18.10;3.20;;;15.80;93.50;;;;;;5009704;28;20475;-67
2023/04/12 10:17:53;;;;;;;13.35;3.40;;;15.80;93.30;;;;;;5027990;28;20025;-68
2023/04/12 10:20:21;;;;;;;10.47;3.07;;;15.90;93.60;;;;;;5031744;28;20029;-67
2023/04/12 10:22:52;;;;;;;13.52;2.92;;;15.90;93.60;;;;;;5031533;28;20039;-67
2023/04/12 10:25:24;;;;;;;16.83;3.40;;;15.90;93.60;;;;;;4995181;28;20390;-67
2023/04/12 10:27:50;;;;;;;13.30;3.25;;;15.90;93.60;;;;;;5014846;28;20023;-67
2023/04/12 10:30:29;;;;;;;10.63;2.55;;;15.90;93.40;;;;;;5013802;28;20017;-66
2023/04/12 10:33:01;;;;;;;10.55;2.60;;;16.00;93.30;;;;;;5012690;28;20040;-67
2023/04/12 10:35:27;;;;;;;11.57;2.65;;;16.00;92.90;;;;;;5030887;28;20533;-67
2023/04/12 10:38:00;;;;;;;11.10;3.20;;;16.00;92.50;;;;;;5028500;28;20067;-66
2023/04/12 10:40:30;;;;;;;10.20;2.47;;;16.00;92.60;;;;;;5031585;28;20026;-66
2023/04/12 10:43:17;;;;;;;9.93;2.60;;;16.00;92.80;;;;;;5031301;28;20030;-68
2023/04/12 10:45:44;;;;;;;5.88;2.38;;;16.10;92.20;;;;;;5031279;28;20053;-66
2023/04/12 10:48:31;;;;;;;11.25;2.20;;;16.00;91.50;;;;;;5031114;28;20030;-67
2023/04/12 10:51:28;;;;;;;9.68;2.33;;;16.10;91.30;;;;;;5029284;28;20040;-67
2023/04/12 10:54:16;;;;;;;9.73;2.30;;;16.10;91.20;;;;;;5010483;28;20368;-67
2023/04/12 10:56:46;;;;;;;8.30;2.00;;;16.10;90.90;;;;;;5011827;28;20099;-66
2023/04/12 10:59:13;;;;;;;9.85;2.55;;;16.20;90.70;;;;;;5025303;28;20026;-73
2023/04/12 11:01:39;;;;;;;11.85;2.78;;;16.20;90.90;;;;;;5031877;28;20026;-69
2023/04/12 11:04:12;;;;;;;11.50;2.03;;;16.20;90.10;;;;;;5031877;28;20064;-66
2023/04/12 11:06:42;;;;;;;8.82;2.10;;;16.30;89.60;;;;;;5031474;28;20029;-67
2023/04/12 11:09:29;;;;;;;9.82;2.10;;;16.30;90.00;;;;;;5032354;28;20063;-67
2023/04/12 11:12:02;;;;;;;8.55;2.10;;;16.30;89.60;;;;;;5035322;28;20510;-65
2023/04/12 11:14:33;;;;;;;7.63;1.83;;;16.30;88.50;;;;;;5035206;28;20037;-65
2023/04/12 11:17:04;;;;;;;9.23;2.17;;;16.40;89.60;;;;;;5024341;28;20387;-68
2023/04/12 11:19:37;;;;;;;8.25;2.15;;;16.40;88.80;;;;;;5035004;28;20057;-67
2023/04/12 11:22:04;;;;;;;5.80;1.85;;;16.40;88.10;;;;;;5035139;28;20033;-66
2023/04/12 11:24:30;;;;;;;10.80;2.13;;;16.40;89.30;;;;;;5034468;28;20021;-66
2023/04/12 11:26:56;;;;;;;5.97;1.58;;;16.40;90.30;;;;;;5020434;28;20091;-67
2023/04/12 11:29:23;;;;;;;6.03;1.40;;;16.40;90.90;;;;;;5021493;28;20045;-67
2023/04/12 11:31:49;;;;;;;6.22;2.03;;;16.40;91.20;;;;;;5034916;28;20029;-67
2023/04/12 11:34:16;;;;;;;2.88;0.90;;;16.30;91.20;;;;;;5034971;28;20120;-67
2023/04/12 11:36:44;;;;;;;4.93;1.10;;;16.30;91.30;;;;;;5035034;28;20117;-68
2023/04/12 11:39:10;;;;;;;4.03;1.10;;;16.20;91.40;;;;;;5034744;28;20029;-67
2023/04/12 11:41:36;;;;;;;4.03;1.13;;;16.10;91.40;;;;;;5033970;28;20048;-67
2023/04/12 11:44:02;;;;;;;6.03;1.02;;;16.10;91.90;;;;;;5034779;28;20072;-67
2023/04/12 11:46:33;;;;;;;5.40;1.05;;;16.20;92.20;;;;;;5034396;28;20017;-68
2023/04/12 11:48:58;;;;;;;7.53;1.08;;;16.30;92.10;;;;;;5025031;28;20055;-65
2023/04/12 11:51:25;;;;;;;4.43;1.20;;;16.30;92.10;;;;;;5021181;28;20104;-68
2023/04/12 11:53:52;;;;;;;5.95;1.20;;;16.30;92.20;;;;;;5027213;28;20064;-67
2023/04/12 11:56:18;;;;;;;4.57;1.00;;;16.40;91.90;;;;;;5013166;28;20114;-72
2023/04/12 11:58:46;;;;;;;4.10;0.85;;;16.40;92.30;;;;;;5028767;28;20120;-66
2023/04/12 12:01:17;;;;;;;6.03;1.10;;;16.40;92.10;;;;;;5032221;28;20123;-67
2023/04/12 12:03:43;;;;;;;4.25;1.13;;;16.40;92.30;;;;;;5015026;28;20439;-67
2023/04/12 12:06:09;;;;;;;6.45;1.27;;;16.50;92.00;;;;;;5016914;28;20018;-67
2023/04/12 12:08:36;;;;;;;3.95;0.85;;;16.50;92.10;;;;;;5033985;28;20083;-67
2023/04/12 12:11:02;;;;;;;6.80;1.05;;;16.50;92.30;;;;;;5030258;28;20048;-69
2023/04/12 12:13:52;;;;;;;3.13;0.90;;;16.60;92.30;;;;;;5016216;28;20029;-67
2023/04/12 12:16:24;;;;;;;4.57;1.02;;;16.60;92.10;;;;;;5014623;28;20487;-67
2023/04/12 12:18:49;;;;;;;4.90;0.90;;;16.60;91.80;;;;;;5019025;28;20037;-68
2023/04/12 12:21:15;;;;;;;4.38;0.90;;;16.60;91.90;;;;;;5033763;28;20028;-67
2023/04/12 12:23:42;;;;;;;4.07;0.88;;;16.70;91.60;;;;;;5016069;28;20025;-72
2023/04/12 12:26:08;;;;;;;3.40;0.73;;;16.70;91.20;;;;;;5034048;28;20021;-67
2023/04/12 12:28:37;;;;;;;4.65;1.02;;;16.70;90.70;;;;;;5032834;28;20040;-67
2023/04/12 12:31:08;;;;;;;2.95;0.82;;;16.70;91.20;;;;;;5014863;28;20540;-66
2023/04/12 12:33:38;;;;;;;3.35;0.68;;;16.70;90.90;;;;;;5033364;28;20033;-67
2023/04/12 12:36:07;;;;;;;3.53;0.80;;;16.70;90.90;;;;;;5034346;28;20014;-67
2023/04/12 12:38:37;;;;;;;3.25;0.98;;;16.70;90.60;;;;;;5034043;28;20022;-67
2023/04/12 12:41:18;;;;;;;2.63;0.68;;;16.80;91.10;;;;;;5034249;28;20104;-67
2023/04/12 12:43:49;;;;;;;3.00;0.63;;;16.80;90.80;;;;;;5030354;28;20053;-66
2023/04/12 12:46:17;;;;;;;1.70;0.52;;;16.90;90.00;;;;;;5014649;28;20034;-67
2023/04/12 12:48:46;;;;;;;3.67;0.50;;;16.80;89.60;;;;;;5029257;28;20017;-67
2023/04/12 12:51:16;;;;;;;2.42;0.80;;;16.90;89.20;;;;;;5033962;28;20025;-66